Time;durP1;ratioP1;P1;durP2;ratioP2;P2;SDS_P1;SDS_P2;PMS_P1;PMS_P2;Temp;Humidity;BMP_temperature;BMP_pressure;BME280_temperature;BME280_humidity;BME280_pressure;Samples;Min_cycle;Max_cycle;Signal;HPM_P1;HPM_P2
2023/10/13 00:01:24;;;;;;;17.17;11.90;;;15.20;99.90;;;;;;4996642;28;20026;-64
2023/10/13 00:03:54;;;;;;;21.50;12.82;;;15.20;99.90;;;;;;4997273;28;20031;-64
2023/10/13 00:06:19;;;;;;;15.15;13.20;;;15.20;99.90;;;;;;4998374;28;20117;-63
2023/10/13 00:08:45;;;;;;;22.40;12.43;;;15.20;99.90;;;;;;5001234;28;20561;-63
2023/10/13 00:11:15;;;;;;;18.85;11.38;;;15.30;99.90;;;;;;4998369;28;20034;-61
2023/10/13 00:13:43;;;;;;;20.60;10.77;;;15.30;99.90;;;;;;4998022;28;20023;-62
2023/10/13 00:16:17;;;;;;;14.95;11.77;;;15.30;99.90;;;;;;4998192;28;20084;-63
2023/10/13 00:18:43;;;;;;;14.70;11.27;;;15.30;99.90;;;;;;4997566;28;20030;-62
2023/10/13 00:21:13;;;;;;;19.17;11.25;;;15.30;99.90;;;;;;4998965;28;20018;-63
2023/10/13 00:23:52;;;;;;;13.60;11.52;;;15.30;99.90;;;;;;4996730;28;20090;-63
2023/10/13 00:26:18;;;;;;;14.55;11.18;;;15.30;99.90;;;;;;4999302;28;20084;-63
2023/10/13 00:28:47;;;;;;;13.77;11.48;;;15.30;99.90;;;;;;4998877;28;20066;-62
2023/10/13 00:31:14;;;;;;;14.93;12.55;;;15.30;99.90;;;;;;4998281;28;21024;-62
2023/10/13 00:33:42;;;;;;;15.63;10.52;;;15.30;99.90;;;;;;4997875;28;20041;-63
2023/10/13 00:36:16;;;;;;;16.58;10.90;;;15.30;99.90;;;;;;5013286;28;20034;-63
2023/10/13 00:38:42;;;;;;;12.75;11.32;;;15.30;99.90;;;;;;4997455;28;20490;-62
2023/10/13 00:41:14;;;;;;;18.63;11.80;;;15.30;99.90;;;;;;4996757;28;20034;-63
2023/10/13 00:44:04;;;;;;;20.67;11.45;;;15.30;99.90;;;;;;4999536;28;20196;-63
2023/10/13 00:46:35;;;;;;;19.15;11.40;;;15.30;99.90;;;;;;4996658;28;20511;-63
2023/10/13 00:49:08;;;;;;;17.55;10.68;;;15.30;99.90;;;;;;4999697;28;20038;-63
2023/10/13 00:51:40;;;;;;;32.30;12.27;;;15.20;99.90;;;;;;4996820;28;20026;-63
2023/10/13 00:54:11;;;;;;;23.13;13.95;;;15.10;99.90;;;;;;4998726;28;20034;-62
2023/10/13 00:56:49;;;;;;;16.33;12.40;;;15.00;99.90;;;;;;4997373;28;20073;-63
2023/10/13 00:59:16;;;;;;;22.08;11.50;;;15.00;99.90;;;;;;4996486;28;20028;-63
2023/10/13 01:01:45;;;;;;;18.13;12.35;;;15.00;99.90;;;;;;4995934;28;20080;-62
2023/10/13 01:04:14;;;;;;;14.82;12.13;;;15.10;99.90;;;;;;5001745;28;20022;-63
2023/10/13 01:06:40;;;;;;;14.23;12.48;;;15.10;99.90;;;;;;4997113;28;20037;-63
2023/10/13 01:09:14;;;;;;;19.88;12.85;;;15.10;99.90;;;;;;5000854;28;20489;-63
2023/10/13 01:11:53;;;;;;;20.10;12.65;;;15.20;99.90;;;;;;4997972;28;20029;-63
2023/10/13 01:14:20;;;;;;;20.30;11.20;;;15.20;99.90;;;;;;4999843;28;20436;-63
2023/10/13 01:16:47;;;;;;;16.10;12.13;;;15.20;99.90;;;;;;4996326;28;20853;-63
2023/10/13 01:19:21;;;;;;;31.25;13.27;;;15.20;99.90;;;;;;4995917;28;20508;-62
2023/10/13 01:21:57;;;;;;;20.33;12.63;;;15.20;99.90;;;;;;4995528;28;20029;-62
2023/10/13 01:24:23;;;;;;;29.42;12.65;;;15.30;99.90;;;;;;4993987;28;20064;-63
2023/10/13 01:26:51;;;;;;;35.00;12.80;;;15.30;99.90;;;;;;4997810;28;20104;-62
2023/10/13 01:29:18;;;;;;;15.88;11.45;;;15.20;99.90;;;;;;4999428;28;20026;-63
2023/10/13 01:31:45;;;;;;;24.88;11.95;;;15.20;99.90;;;;;;4996168;28;20865;-63
2023/10/13 01:34:24;;;;;;;16.63;11.90;;;15.20;99.90;;;;;;4994500;28;20034;-63
2023/10/13 01:36:55;;;;;;;19.70;13.30;;;15.20;99.90;;;;;;4997450;28;20046;-64
2023/10/13 01:39:26;;;;;;;18.02;13.05;;;15.10;99.90;;;;;;4996324;28;20041;-62
2023/10/13 01:41:55;;;;;;;20.27;12.50;;;15.10;99.90;;;;;;4997833;28;20018;-63
2023/10/13 01:44:33;;;;;;;26.88;12.68;;;15.00;99.90;;;;;;4995997;28;20524;-63
2023/10/13 01:47:05;;;;;;;23.08;13.10;;;15.00;99.90;;;;;;5001042;28;20029;-64
2023/10/13 01:49:46;;;;;;;14.40;11.15;;;14.90;99.90;;;;;;4997688;28;20022;-63
2023/10/13 01:52:16;;;;;;;21.75;12.38;;;14.90;99.90;;;;;;4999995;28;20025;-63
2023/10/13 01:54:44;;;;;;;18.80;12.55;;;14.90;99.90;;;;;;4998320;28;20034;-62
2023/10/13 01:57:14;;;;;;;19.88;12.45;;;14.90;99.90;;;;;;4997626;28;20684;-62
2023/10/13 01:59:43;;;;;;;17.92;12.45;;;14.90;99.90;;;;;;4995844;28;20026;-62
2023/10/13 02:02:12;;;;;;;19.75;12.98;;;14.90;99.90;;;;;;4996997;28;20018;-62
2023/10/13 02:05:00;;;;;;;15.63;12.23;;;14.90;99.90;;;;;;4996205;28;20023;-62
2023/10/13 02:07:34;;;;;;;24.70;14.05;;;14.70;99.90;;;;;;4998432;28;20050;-62
2023/10/13 02:10:04;;;;;;;16.35;12.88;;;14.70;99.90;;;;;;4998238;28;20485;-63
2023/10/13 02:12:42;;;;;;;24.23;13.60;;;14.70;99.90;;;;;;4997422;28;20084;-63
2023/10/13 02:15:34;;;;;;;28.25;13.93;;;14.60;99.90;;;;;;4997352;28;20492;-62
2023/10/13 02:17:59;;;;;;;20.77;14.77;;;14.50;99.90;;;;;;4995519;28;20036;-62
2023/10/13 02:20:33;;;;;;;25.33;13.93;;;14.40;99.90;;;;;;4995240;28;20381;-63
2023/10/13 02:22:59;;;;;;;27.05;15.68;;;14.40;99.90;;;;;;4996355;28;20027;-63
2023/10/13 02:28:28;;;;;;;30.98;18.50;;;14.40;99.90;;;;;;4992354;28;20042;-63
2023/10/13 02:30:53;;;;;;;31.15;18.95;;;14.50;99.90;;;;;;4995432;28;20050;-63
2023/10/13 02:33:22;;;;;;;35.20;19.45;;;14.50;99.90;;;;;;4998132;28;20057;-63
2023/10/13 02:35:54;;;;;;;40.72;20.67;;;14.60;99.90;;;;;;4997135;28;20421;-62
2023/10/13 02:41:25;;;;;;;37.20;20.77;;;14.60;99.90;;;;;;4999216;28;20018;-62
2023/10/13 02:43:52;;;;;;;31.13;19.67;;;14.70;99.90;;;;;;5003193;28;20053;-63
2023/10/13 02:46:21;;;;;;;32.60;19.83;;;14.70;99.90;;;;;;5002618;28;20122;-62
2023/10/13 02:48:52;;;;;;;27.77;18.08;;;14.80;99.90;;;;;;5004845;28;20041;-63
2023/10/13 02:51:23;;;;;;;29.45;18.35;;;14.80;99.90;;;;;;4999878;28;20034;-62
2023/10/13 02:53:49;;;;;;;26.77;17.10;;;14.90;99.90;;;;;;4998742;28;20125;-62
2023/10/13 02:56:22;;;;;;;28.30;17.52;;;14.90;99.90;;;;;;4996886;28;20367;-63
2023/10/13 02:59:04;;;;;;;23.65;16.58;;;14.90;99.90;;;;;;4995477;28;20018;-63
2023/10/13 03:01:33;;;;;;;27.38;14.90;;;14.90;99.90;;;;;;4999890;28;20038;-62
2023/10/13 03:04:00;;;;;;;21.40;15.93;;;15.00;99.90;;;;;;5000072;28;20045;-63
2023/10/13 03:06:33;;;;;;;22.77;15.85;;;15.00;99.90;;;;;;4997202;28;20481;-62
2023/10/13 03:09:13;;;;;;;26.38;15.70;;;15.00;99.90;;;;;;4998852;28;20025;-64
2023/10/13 03:11:42;;;;;;;19.65;15.57;;;15.00;99.90;;;;;;5014466;28;20022;-63
2023/10/13 03:14:19;;;;;;;23.73;16.35;;;14.90;99.90;;;;;;5001513;28;20088;-62
2023/10/13 03:16:45;;;;;;;22.58;16.40;;;14.80;99.90;;;;;;4996416;28;20038;-62
2023/10/13 03:19:11;;;;;;;23.88;16.63;;;14.80;99.90;;;;;;4996772;28;20030;-62
2023/10/13 03:21:36;;;;;;;19.00;16.80;;;14.80;99.90;;;;;;5000527;28;20121;-61
2023/10/13 03:24:06;;;;;;;28.90;18.38;;;14.70;99.90;;;;;;4998338;28;20067;-61
2023/10/13 03:26:37;;;;;;;29.83;19.30;;;14.70;99.90;;;;;;5001362;28;20477;-63
2023/10/13 03:29:07;;;;;;;34.78;18.85;;;14.70;99.90;;;;;;4997135;28;20030;-62
2023/10/13 03:31:36;;;;;;;34.78;19.63;;;14.60;99.90;;;;;;4998684;28;20038;-63
2023/10/13 03:34:09;;;;;;;37.47;18.55;;;14.60;99.90;;;;;;5001027;28;20030;-62
2023/10/13 03:39:26;;;;;;;35.08;19.25;;;14.60;99.90;;;;;;4998814;28;20149;-63
2023/10/13 03:41:53;;;;;;;28.38;18.90;;;14.60;99.90;;;;;;4999248;28;20029;-63
2023/10/13 03:44:20;;;;;;;32.17;18.10;;;14.60;99.90;;;;;;4999928;28;20066;-63
2023/10/13 03:46:47;;;;;;;23.40;16.80;;;14.70;99.90;;;;;;4997356;28;20061;-63
2023/10/13 03:49:21;;;;;;;24.10;17.98;;;14.70;99.90;;;;;;4998028;28;20109;-63
2023/10/13 03:51:48;;;;;;;24.92;16.25;;;14.80;99.90;;;;;;5017387;28;20097;-63
2023/10/13 03:54:16;;;;;;;30.10;17.35;;;14.80;99.90;;;;;;4998458;28;20120;-63
2023/10/13 03:56:44;;;;;;;20.70;17.48;;;14.80;99.90;;;;;;5002221;28;20478;-62
2023/10/13 04:17:22;;;;;;;25.80;16.98;;;14.70;99.90;;;;;;5001454;28;20041;-62
2023/10/13 04:36:14;;;;;;;22.30;16.35;;;14.80;99.90;;;;;;4999204;28;20026;-63
2023/10/13 04:38:57;;;;;;;32.28;15.90;;;14.80;99.90;;;;;;5000986;28;20030;-63
2023/10/13 04:41:41;;;;;;;27.70;16.10;;;14.80;99.90;;;;;;5000737;28;20038;-62
2023/10/13 04:44:48;;;;;;;29.77;17.08;;;14.70;99.90;;;;;;4997455;28;20027;-62
2023/10/13 04:47:09;;;;;;;;;;;14.70;99.90;;;;;;5000526;28;20034;-63
2023/10/13 04:55:32;;;;;;;27.58;17.02;;;14.70;99.90;;;;;;4997451;28;20045;-63
2023/10/13 05:44:33;;;;;;;24.60;16.92;;;14.50;99.90;;;;;;4997871;28;20508;-63
2023/10/13 05:49:50;;;;;;;26.58;17.40;;;14.70;99.90;;;;;;4992631;28;20026;-63
2023/10/13 06:28:40;;;;;;;27.40;18.08;;;14.70;99.90;;;;;;4995078;28;20022;-62
2023/10/13 06:30:57;;;;;;;28.00;17.85;;;14.80;99.90;;;;;;4997538;28;20045;-61
2023/10/13 06:33:28;;;;;;;34.80;19.60;;;14.90;99.90;;;;;;5000043;28;20030;-62
2023/10/13 06:35:57;;;;;;;37.88;19.05;;;14.90;99.90;;;;;;4999144;28;20026;-62
2023/10/13 06:38:23;;;;;;;21.58;16.65;;;15.00;99.90;;;;;;4999636;28;20402;-63
2023/10/13 06:40:52;;;;;;;21.38;16.60;;;15.00;99.90;;;;;;4997072;28;20037;-63
2023/10/13 06:43:21;;;;;;;21.95;15.65;;;15.10;99.90;;;;;;4998960;28;20529;-62
2023/10/13 06:45:56;;;;;;;17.15;14.70;;;15.10;99.90;;;;;;4995862;28;20053;-62
2023/10/13 06:48:26;;;;;;;23.77;15.73;;;15.20;99.90;;;;;;5001622;28;20439;-62
2023/10/13 06:50:52;;;;;;;17.42;12.98;;;15.20;99.90;;;;;;5002730;28;20061;-63
2023/10/13 06:53:20;;;;;;;17.75;13.63;;;15.30;99.90;;;;;;4999968;28;20092;-62
2023/10/13 06:55:52;;;;;;;18.30;13.95;;;15.30;99.90;;;;;;4999698;28;20785;-63
2023/10/13 06:58:23;;;;;;;27.35;14.02;;;15.40;99.90;;;;;;5000627;28;20038;-63
2023/10/13 07:00:57;;;;;;;;;;;15.40;99.90;;;;;;5000947;28;20464;-63
2023/10/13 07:03:24;;;;;;;21.85;15.45;;;15.50;99.90;;;;;;5001137;28;19936;-62
2023/10/13 07:05:51;;;;;;;24.42;13.18;;;15.60;99.90;;;;;;4999526;28;20018;-62
2023/10/13 07:08:19;;;;;;;19.80;14.35;;;15.70;99.90;;;;;;4999190;28;20062;-63
2023/10/13 07:11:02;;;;;;;18.70;11.85;;;15.70;99.90;;;;;;4998255;28;20033;-62
2023/10/13 07:13:28;;;;;;;19.98;12.95;;;15.70;99.90;;;;;;4996687;28;20030;-63
2023/10/13 07:16:06;;;;;;;20.77;13.10;;;15.80;99.90;;;;;;5000611;28;20084;-63
2023/10/13 07:18:36;;;;;;;12.18;10.98;;;15.80;99.90;;;;;;4996709;28;20117;-62
2023/10/13 07:21:09;;;;;;;14.47;12.27;;;15.80;99.90;;;;;;5001139;28;20026;-61
2023/10/13 07:23:36;;;;;;;15.52;11.45;;;15.80;99.90;;;;;;4997446;28;20500;-63
2023/10/13 07:26:05;;;;;;;15.25;11.07;;;15.80;99.90;;;;;;5001808;28;20058;-61
2023/10/13 07:28:35;;;;;;;18.33;10.13;;;15.90;99.90;;;;;;5000453;28;20113;-61
2023/10/13 07:33:32;;;;;;;15.68;9.88;;;16.00;99.90;;;;;;5018084;28;20789;-62
2023/10/13 07:36:28;;;;;;;12.02;9.80;;;16.00;99.90;;;;;;5000633;28;20112;-63
2023/10/13 07:39:28;;;;;;;13.55;9.02;;;16.10;99.90;;;;;;5001024;28;20034;-62
2023/10/13 07:41:51;;;;;;;13.38;9.13;;;16.20;99.90;;;;;;4998035;28;20061;-63
2023/10/13 07:44:19;;;;;;;13.05;8.85;;;16.30;99.90;;;;;;5002249;28;20026;-62
2023/10/13 07:46:49;;;;;;;13.48;8.45;;;16.40;99.90;;;;;;4998674;28;20564;-62
2023/10/13 07:49:15;;;;;;;14.68;9.13;;;16.50;99.90;;;;;;5002951;28;20709;-62
2023/10/13 07:51:44;;;;;;;8.43;7.50;;;16.70;99.90;;;;;;4999663;28;20022;-62
2023/10/13 07:54:24;;;;;;;12.60;8.10;;;16.90;99.90;;;;;;4999746;28;20030;-62
2023/10/13 07:56:50;;;;;;;12.93;7.68;;;17.00;99.90;;;;;;5001107;28;20018;-63
2023/10/13 07:59:16;;;;;;;11.40;7.00;;;17.10;99.90;;;;;;5003826;28;20030;-62
2023/10/13 08:01:45;;;;;;;11.80;7.05;;;17.20;99.90;;;;;;5001356;28;20033;-62
2023/10/13 08:04:11;;;;;;;13.13;6.72;;;17.30;99.90;;;;;;5001229;28;20026;-63
2023/10/13 08:06:40;;;;;;;10.45;7.15;;;17.30;99.90;;;;;;5005842;28;20033;-63
2023/10/13 08:11:54;;;;;;;10.95;6.97;;;17.40;99.90;;;;;;5001032;28;20025;-62
2023/10/13 08:14:23;;;;;;;7.93;7.07;;;17.50;99.90;;;;;;5001020;28;20045;-62
2023/10/13 08:19:27;;;;;;;11.07;7.07;;;17.80;99.90;;;;;;4997448;28;20022;-62
2023/10/13 08:45:53;;;;;;;9.38;6.40;;;18.30;99.90;;;;;;4999199;28;20105;-63
2023/10/13 08:48:18;;;;;;;17.90;6.50;;;18.30;99.90;;;;;;4999918;28;20049;-62
2023/10/13 09:04:22;;;;;;;12.13;7.50;;;18.60;99.90;;;;;;4997575;28;20077;-63
2023/10/13 09:12:20;;;;;;;9.57;5.90;;;18.90;99.90;;;;;;5002328;28;20038;-62
2023/10/13 09:14:57;;;;;;;10.43;7.00;;;19.10;99.90;;;;;;5001361;28;20022;-62
2023/10/13 09:20:23;;;;;;;9.82;7.20;;;19.10;99.90;;;;;;5000303;28;20030;-63
2023/10/13 09:25:34;;;;;;;;;;;19.10;99.90;;;;;;5002019;28;20034;-63
2023/10/13 09:28:00;;;;;;;7.78;6.07;;;19.20;99.90;;;;;;5002057;28;20284;-63
2023/10/13 09:30:31;;;;;;;9.48;6.50;;;19.20;99.90;;;;;;4997984;28;20026;-62
2023/10/13 09:33:15;;;;;;;8.52;5.05;;;19.30;99.90;;;;;;4998816;28;20026;-62
2023/10/13 09:35:51;;;;;;;8.90;6.13;;;19.60;99.90;;;;;;4998402;28;20034;-63
2023/10/13 09:38:17;;;;;;;10.77;5.65;;;20.20;99.90;;;;;;4998303;28;20117;-63
2023/10/13 09:40:50;;;;;;;12.15;5.43;;;20.40;99.90;;;;;;4998143;28;20026;-63
2023/10/13 09:43:21;;;;;;;11.65;5.47;;;20.70;99.90;;;;;;4996203;28;20445;-63
2023/10/13 09:46:01;;;;;;;7.47;4.38;;;21.00;99.90;;;;;;4996099;28;20508;-62
2023/10/13 09:48:40;;;;;;;8.50;5.50;;;21.00;99.90;;;;;;4998158;28;20037;-63
2023/10/13 09:51:21;;;;;;;11.93;5.75;;;21.00;99.90;;;;;;5013894;28;20077;-62
2023/10/13 09:54:06;;;;;;;13.15;5.22;;;20.90;99.90;;;;;;4994019;28;20044;-62
2023/10/13 09:56:51;;;;;;;11.48;5.07;;;21.00;99.90;;;;;;5000530;28;20045;-63
2023/10/13 09:59:22;;;;;;;9.38;4.60;;;21.00;99.90;;;;;;4996700;28;20030;-63
2023/10/13 10:01:51;;;;;;;11.15;4.88;;;20.80;99.90;;;;;;4998032;28;20030;-63
2023/10/13 10:04:18;;;;;;;7.68;5.43;;;20.80;99.90;;;;;;5001075;28;20032;-63
2023/10/13 10:06:59;;;;;;;7.65;4.90;;;20.90;99.90;;;;;;4998371;28;20460;-63
2023/10/13 10:09:39;;;;;;;5.38;4.88;;;21.00;99.90;;;;;;4996202;28;20033;-63
2023/10/13 10:12:04;;;;;;;6.53;4.00;;;20.90;99.90;;;;;;4995288;28;20036;-62
2023/10/13 10:14:49;;;;;;;9.63;4.68;;;21.00;99.90;;;;;;4998614;28;20545;-63
2023/10/13 10:17:14;;;;;;;9.43;5.13;;;21.20;99.90;;;;;;4997549;28;20037;-63
2023/10/13 10:19:53;;;;;;;5.95;3.65;;;21.30;99.90;;;;;;4997500;28;20401;-63
2023/10/13 10:22:36;;;;;;;14.63;4.18;;;21.40;99.90;;;;;;4995299;28;20053;-63
2023/10/13 10:25:28;;;;;;;6.43;3.85;;;21.50;99.90;;;;;;4995312;28;20074;-61
2023/10/13 10:27:59;;;;;;;6.03;4.30;;;21.50;99.90;;;;;;4997279;28;20092;-63
2023/10/13 10:30:29;;;;;;;10.75;4.00;;;21.70;99.90;;;;;;4993565;28;20038;-63
2023/10/13 10:33:11;;;;;;;6.97;3.87;;;22.00;99.90;;;;;;4993271;28;20030;-63
2023/10/13 10:35:42;;;;;;;8.73;3.92;;;22.10;99.90;;;;;;5000002;28;20084;-63
2023/10/13 10:38:13;;;;;;;7.63;4.35;;;22.30;99.90;;;;;;4995043;28;20081;-63
2023/10/13 10:41:00;;;;;;;8.55;4.45;;;22.50;99.90;;;;;;4997193;28;20026;-61
2023/10/13 10:43:48;;;;;;;8.93;4.18;;;22.60;99.90;;;;;;4996957;28;20030;-62
2023/10/13 10:46:40;;;;;;;5.95;3.97;;;22.60;99.90;;;;;;4994397;28;20164;-62
2023/10/13 10:49:08;;;;;;;9.43;4.32;;;22.70;99.90;;;;;;4997376;28;20026;-62
2023/10/13 10:51:43;;;;;;;6.80;4.03;;;22.80;99.90;;;;;;4999105;28;20091;-63
2023/10/13 10:54:18;;;;;;;5.22;3.90;;;22.80;99.90;;;;;;4997023;28;20022;-63
2023/10/13 10:56:52;;;;;;;10.48;4.25;;;22.80;99.90;;;;;;5000274;28;20494;-64
2023/10/13 10:59:19;;;;;;;9.57;4.57;;;22.80;99.90;;;;;;5001544;28;20086;-63
2023/10/13 11:01:52;;;;;;;6.53;3.88;;;22.70;99.90;;;;;;5002031;28;20117;-63
2023/10/13 11:04:18;;;;;;;7.45;3.72;;;22.50;99.90;;;;;;5002778;28;20050;-62
2023/10/13 11:06:57;;;;;;;7.00;3.60;;;22.30;99.90;;;;;;5000301;28;20550;-62
2023/10/13 11:09:31;;;;;;;8.05;4.22;;;22.20;99.90;;;;;;5001858;28;20054;-62
2023/10/13 11:12:15;;;;;;;6.45;4.30;;;22.10;99.90;;;;;;4999337;28;20125;-63
2023/10/13 11:14:46;;;;;;;6.35;3.83;;;22.00;99.90;;;;;;4999860;28;20492;-64
2023/10/13 11:17:26;;;;;;;6.55;3.60;;;22.00;99.90;;;;;;5000568;28;20033;-63
2023/10/13 11:19:52;;;;;;;6.78;3.70;;;22.10;99.90;;;;;;4999638;28;20025;-63
2023/10/13 11:22:42;;;;;;;6.80;3.38;;;22.10;99.90;;;;;;5001472;28;20745;-63
2023/10/13 11:25:10;;;;;;;5.20;3.80;;;22.10;99.90;;;;;;5002225;28;20037;-62
2023/10/13 11:30:25;;;;;;;6.80;3.90;;;22.20;99.90;;;;;;4999539;28;20026;-64
2023/10/13 11:33:00;;;;;;;9.80;4.22;;;22.40;99.90;;;;;;5002621;28;20030;-64
2023/10/13 11:35:48;;;;;;;8.05;4.05;;;22.70;99.90;;;;;;5000982;28;20045;-62
2023/10/13 11:38:15;;;;;;;7.07;4.00;;;23.00;99.90;;;;;;4997104;28;20045;-63
2023/10/13 11:40:59;;;;;;;5.68;3.80;;;23.30;99.90;;;;;;5002548;28;20038;-62
2023/10/13 11:43:24;;;;;;;10.13;4.00;;;23.60;99.90;;;;;;5003625;28;20037;-63
2023/10/13 11:46:12;;;;;;;8.00;3.55;;;23.90;99.90;;;;;;4998973;28;20382;-63
2023/10/13 11:48:41;;;;;;;6.32;3.72;;;24.10;99.90;;;;;;5000660;28;20042;-63
2023/10/13 11:51:08;;;;;;;4.03;3.22;;;24.10;99.90;;;;;;5000153;28;20065;-62
2023/10/13 11:53:38;;;;;;;8.52;4.28;;;24.00;99.90;;;;;;5001046;28;20508;-64
2023/10/13 11:56:10;;;;;;;5.97;3.47;;;23.90;99.90;;;;;;5002342;28;20038;-63
2023/10/13 11:58:40;;;;;;;4.78;3.45;;;24.00;99.90;;;;;;4997764;28;20054;-63
2023/10/13 12:06:32;;;;;;;;;;;;;;;;;;;;;
2023/10/13 12:08:52;;;;;;;11.43;4.28;;;24.40;95.10;;;;;;4998106;28;20026;-63
2023/10/13 12:11:30;;;;;;;7.38;4.10;;;24.30;96.80;;;;;;4997340;28;20547;-64
2023/10/13 12:13:56;;;;;;;4.93;3.35;;;24.20;94.70;;;;;;4999159;28;20027;-63
2023/10/13 12:16:22;;;;;;;6.00;4.07;;;24.10;94.30;;;;;;5002497;28;20042;-64
2023/10/13 12:18:53;;;;;;;4.32;3.03;;;24.10;94.30;;;;;;5000999;28;20026;-63
2023/10/13 12:21:21;;;;;;;;;;;24.50;99.90;;;;;;5001317;28;20029;-64
2023/10/13 12:23:47;;;;;;;7.82;3.72;;;24.60;98.10;;;;;;4999263;28;20005;-63
2023/10/13 12:26:32;;;;;;;4.43;3.22;;;24.80;94.20;;;;;;4998597;28;20018;-62
2023/10/13 12:29:06;;;;;;;4.43;3.13;;;24.70;91.80;;;;;;4999801;28;20496;-64
2023/10/13 12:31:39;;;;;;;3.92;3.10;;;24.80;99.90;;;;;;4998760;28;20468;-63
2023/10/13 12:34:14;;;;;;;6.63;3.45;;;24.90;92.80;;;;;;5000024;28;20033;-63
2023/10/13 12:36:53;;;;;;;8.38;4.05;;;24.80;92.00;;;;;;4999410;28;20030;-64
2023/10/13 12:50:34;;;;;;;8.45;3.88;;;25.00;90.60;;;;;;4994767;28;20073;-63
2023/10/13 12:53:00;;;;;;;9.52;4.03;;;25.20;85.00;;;;;;4997792;28;20091;-63
2023/10/13 12:55:25;;;;;;;6.88;3.63;;;25.40;85.30;;;;;;5002280;28;20783;-65
2023/10/13 12:57:51;;;;;;;9.07;3.30;;;25.70;93.30;;;;;;5001812;28;20022;-63
2023/10/13 13:00:21;;;;;;;12.65;3.60;;;26.00;86.40;;;;;;4998815;28;20386;-63
2023/10/13 13:02:46;;;;;;;7.97;3.30;;;26.10;81.80;;;;;;4997554;28;20397;-64
2023/10/13 13:05:12;;;;;;;4.00;2.88;;;26.20;79.10;;;;;;4998168;28;20034;-63
2023/10/13 13:07:52;;;;;;;6.38;3.35;;;26.30;79.70;;;;;;4996917;28;20126;-64
2023/10/13 13:10:18;;;;;;;5.75;3.25;;;26.10;78.10;;;;;;4998147;28;20329;-63
2023/10/13 13:12:44;;;;;;;7.32;3.33;;;25.90;75.60;;;;;;4998724;28;20026;-63
2023/10/13 13:15:11;;;;;;;4.47;3.03;;;25.80;81.60;;;;;;4998341;28;20017;-62
2023/10/13 13:17:38;;;;;;;5.57;3.50;;;25.50;80.60;;;;;;5003049;28;20557;-64
2023/10/13 13:20:11;;;;;;;8.25;3.83;;;25.30;84.00;;;;;;4996540;28;20030;-63
2023/10/13 13:22:39;;;;;;;6.55;3.45;;;25.10;82.90;;;;;;4998878;28;20026;-63
2023/10/13 13:25:08;;;;;;;11.45;3.38;;;25.00;84.50;;;;;;5000402;28;20516;-64
2023/10/13 13:27:34;;;;;;;6.13;3.60;;;24.90;92.10;;;;;;4997746;28;20034;-64
2023/10/13 13:30:00;;;;;;;5.85;3.58;;;24.80;91.00;;;;;;4996621;28;20026;-63
2023/10/13 13:32:28;;;;;;;6.68;3.10;;;24.80;89.80;;;;;;4995440;28;20129;-63
2023/10/13 13:34:57;;;;;;;6.20;3.10;;;24.70;87.40;;;;;;4996556;28;20520;-64
2023/10/13 13:37:22;;;;;;;8.32;3.38;;;24.70;82.80;;;;;;5000145;28;20034;-64
2023/10/13 13:39:52;;;;;;;6.15;3.55;;;24.70;85.20;;;;;;4997952;28;20042;-63
2023/10/13 13:42:18;;;;;;;6.53;3.53;;;24.70;92.10;;;;;;4999648;28;20034;-64
2023/10/13 13:44:46;;;;;;;8.18;3.38;;;24.70;82.40;;;;;;4982536;28;20033;-63
2023/10/13 13:47:16;;;;;;;6.07;3.33;;;24.80;83.50;;;;;;4998971;28;20038;-63
2023/10/13 13:49:51;;;;;;;5.05;3.45;;;24.80;90.10;;;;;;4996552;28;20084;-63
2023/10/13 13:52:21;;;;;;;9.20;3.25;;;24.80;83.10;;;;;;4998798;28;20061;-62
2023/10/13 13:54:47;;;;;;;6.55;3.33;;;24.80;79.60;;;;;;4999627;28;20034;-63
2023/10/13 13:57:13;;;;;;;9.77;3.45;;;24.60;79.50;;;;;;4996949;28;20095;-63
2023/10/13 13:59:44;;;;;;;7.07;3.78;;;24.50;80.70;;;;;;4995545;28;20046;-62
2023/10/13 14:02:19;;;;;;;6.05;3.50;;;24.40;81.80;;;;;;4998997;28;20065;-62
2023/10/13 14:04:46;;;;;;;6.22;3.50;;;24.30;84.60;;;;;;4998161;28;20103;-62
2023/10/13 14:07:14;;;;;;;19.27;3.75;;;24.30;77.30;;;;;;4995875;28;20027;-62
2023/10/13 14:09:43;;;;;;;7.47;3.53;;;24.40;77.90;;;;;;4998180;28;20041;-63
2023/10/13 14:14:56;;;;;;;6.07;3.30;;;24.80;76.20;;;;;;5000460;28;20091;-62
2023/10/13 14:17:29;;;;;;;4.55;3.33;;;24.80;77.00;;;;;;4998724;28;20022;-63
2023/10/13 14:19:57;;;;;;;6.20;3.30;;;24.80;77.20;;;;;;4996491;28;20050;-64
2023/10/13 14:22:27;;;;;;;6.35;3.28;;;24.60;82.00;;;;;;4997084;28;20034;-63
2023/10/13 14:24:55;;;;;;;5.18;3.10;;;24.30;83.60;;;;;;4995285;28;20136;-63
2023/10/13 14:27:23;;;;;;;5.03;3.47;;;24.10;82.80;;;;;;4994550;28;20026;-61
2023/10/13 14:29:56;;;;;;;6.38;3.33;;;23.90;90.70;;;;;;4996586;28;20038;-63
2023/10/13 14:32:24;;;;;;;4.88;3.00;;;23.70;92.50;;;;;;4997910;28;20121;-63
2023/10/13 14:35:00;;;;;;;9.02;3.72;;;23.50;94.20;;;;;;4998827;28;20068;-63
2023/10/13 14:37:31;;;;;;;6.82;3.85;;;23.40;94.20;;;;;;5000171;28;20046;-64
2023/10/13 14:39:58;;;;;;;8.30;3.00;;;23.40;96.30;;;;;;4998822;28;20077;-63
2023/10/13 14:42:25;;;;;;;5.15;3.00;;;23.40;99.90;;;;;;4993174;28;20117;-63
2023/10/13 14:44:55;;;;;;;4.82;3.00;;;23.50;95.90;;;;;;4996908;28;20022;-63
2023/10/13 14:47:24;;;;;;;5.33;3.07;;;23.80;93.50;;;;;;4996584;28;20053;-63
2023/10/13 14:49:54;;;;;;;4.63;3.30;;;24.00;95.70;;;;;;5000991;28;20308;-63
2023/10/13 14:52:20;;;;;;;8.38;3.53;;;24.10;92.40;;;;;;4998001;28;20026;-63
2023/10/13 14:54:47;;;;;;;11.40;3.05;;;24.30;97.70;;;;;;5001075;28;20122;-63
2023/10/13 14:57:13;;;;;;;6.18;2.95;;;24.30;91.40;;;;;;4997913;28;20050;-62
2023/10/13 14:59:39;;;;;;;7.90;3.00;;;24.30;90.30;;;;;;5002449;28;20038;-62
2023/10/13 15:02:04;;;;;;;6.47;3.40;;;24.10;92.30;;;;;;4999070;28;20053;-62
2023/10/13 15:04:33;;;;;;;8.43;3.38;;;24.00;91.00;;;;;;5003718;28;20109;-64
2023/10/13 15:07:01;;;;;;;8.43;3.08;;;23.80;94.70;;;;;;4997198;28;20080;-63
2023/10/13 15:09:28;;;;;;;6.68;2.90;;;23.70;97.10;;;;;;4995306;28;20470;-63
2023/10/13 15:11:53;;;;;;;9.40;3.42;;;23.50;98.50;;;;;;4982930;28;20053;-63
2023/10/13 15:14:20;;;;;;;8.40;3.00;;;23.50;94.20;;;;;;4999887;28;20041;-63
2023/10/13 15:16:46;;;;;;;9.82;3.47;;;23.40;99.40;;;;;;4997527;28;20034;-62
2023/10/13 15:19:12;;;;;;;6.03;3.00;;;23.30;95.00;;;;;;4999337;28;20641;-63
2023/10/13 15:21:39;;;;;;;10.60;3.45;;;23.30;95.20;;;;;;4997963;28;20030;-64
2023/10/13 15:24:21;;;;;;;10.20;3.58;;;23.30;99.30;;;;;;4995974;28;20052;-64
2023/10/13 15:26:47;;;;;;;7.70;3.20;;;23.30;96.90;;;;;;4997197;28;20113;-62
2023/10/13 15:29:18;;;;;;;7.57;3.05;;;23.20;98.90;;;;;;4998266;28;20042;-62
2023/10/13 15:32:05;;;;;;;12.18;3.70;;;23.20;99.90;;;;;;4997198;28;20448;-63
2023/10/13 15:34:32;;;;;;;5.50;3.03;;;23.10;99.90;;;;;;4994407;28;20030;-63
2023/10/13 15:36:58;;;;;;;5.43;3.58;;;23.00;99.50;;;;;;4999001;28;20034;-63
2023/10/13 15:39:28;;;;;;;6.72;3.10;;;23.00;98.10;;;;;;4999045;28;20034;-64
2023/10/13 15:41:58;;;;;;;3.92;3.03;;;23.00;99.90;;;;;;4998122;28;20033;-63
2023/10/13 15:44:24;;;;;;;8.20;3.72;;;22.90;99.90;;;;;;4999525;28;20482;-63
2023/10/13 15:46:57;;;;;;;5.45;3.35;;;22.90;99.90;;;;;;5000138;28;20049;-64
2023/10/13 15:49:23;;;;;;;7.60;3.88;;;22.80;99.90;;;;;;4998756;28;20038;-62
2023/10/13 15:51:49;;;;;;;10.30;4.10;;;22.80;99.90;;;;;;5000874;28;20513;-63
2023/10/13 15:54:16;;;;;;;5.63;3.58;;;22.70;99.90;;;;;;5001701;28;20056;-62
2023/10/13 15:56:46;;;;;;;6.28;3.20;;;22.70;99.90;;;;;;5001518;28;20382;-62
2023/10/13 15:59:12;;;;;;;12.35;4.47;;;22.60;99.90;;;;;;4999325;28;20037;-63
2023/10/13 16:01:40;;;;;;;8.73;3.47;;;22.50;99.90;;;;;;4998247;28;20721;-63
2023/10/13 16:04:13;;;;;;;5.38;3.00;;;22.40;99.90;;;;;;5000660;28;20171;-63
2023/10/13 16:06:46;;;;;;;8.32;3.65;;;22.30;99.90;;;;;;4999308;28;20034;-62
2023/10/13 16:09:19;;;;;;;5.30;3.22;;;22.30;99.90;;;;;;5002763;28;20138;-64
2023/10/13 16:11:45;;;;;;;7.93;3.28;;;22.20;99.90;;;;;;5000704;28;20732;-63
2023/10/13 16:14:17;;;;;;;6.78;3.10;;;22.20;99.90;;;;;;4999596;28;20861;-63
2023/10/13 16:16:46;;;;;;;7.07;3.33;;;22.00;99.90;;;;;;4998400;28;20030;-63
2023/10/13 16:19:21;;;;;;;7.07;3.45;;;22.00;99.90;;;;;;4996496;28;20030;-63
2023/10/13 16:21:47;;;;;;;6.55;3.40;;;21.90;99.90;;;;;;5012378;28;20030;-63
2023/10/13 16:24:17;;;;;;;10.32;3.08;;;21.80;99.90;;;;;;4994584;28;20040;-63
2023/10/13 16:26:52;;;;;;;7.03;2.88;;;21.70;99.90;;;;;;4998955;28;20054;-62
2023/10/13 16:29:18;;;;;;;7.03;2.92;;;21.70;99.90;;;;;;5001874;28;20112;-63
2023/10/13 16:31:45;;;;;;;6.50;3.13;;;21.70;99.90;;;;;;4997954;28;20447;-64
2023/10/13 16:34:18;;;;;;;4.38;2.78;;;21.60;99.90;;;;;;4997308;28;20061;-63